createdAt,value
2022-12-01T00:00:58.190Z,1003.10
2022-12-01T00:01:58.290Z,1003.10
2022-12-01T00:02:58.314Z,1003.12
2022-12-01T00:03:58.185Z,1003.11
2022-12-01T00:04:58.178Z,1003.10
2022-12-01T00:05:58.211Z,1003.10
2022-12-01T00:06:58.153Z,1003.10
2022-12-01T00:07:58.204Z,1003.09
2022-12-01T00:08:58.137Z,1003.09
2022-12-01T00:09:58.121Z,1003.08
2022-12-01T00:10:58.108Z,1003.07
2022-12-01T00:11:58.176Z,1003.06
2022-12-01T00:12:58.106Z,1003.07
2022-12-01T00:13:58.113Z,1003.09
2022-12-01T00:14:58.096Z,1003.09
2022-12-01T00:15:58.067Z,1003.10
2022-12-01T00:16:58.116Z,1003.10
2022-12-01T00:17:58.131Z,1003.11
2022-12-01T00:18:58.052Z,1003.11
2022-12-01T00:19:58.059Z,1003.12
2022-12-01T00:20:58.034Z,1003.11
2022-12-01T00:21:58.046Z,1003.11
2022-12-01T00:22:58.031Z,1003.11
2022-12-01T00:23:58.235Z,1003.10
2022-12-01T00:24:58.010Z,1003.10
2022-12-01T00:25:58.009Z,1003.11
2022-12-01T00:26:58.025Z,1003.11
2022-12-01T00:27:58.001Z,1003.10
2022-12-01T00:28:58.026Z,1003.10
2022-12-01T00:29:58.041Z,1003.09
2022-12-01T00:30:57.985Z,1003.09
2022-12-01T00:31:58.019Z,1003.08
2022-12-01T00:32:57.982Z,1003.08
2022-12-01T00:33:57.975Z,1003.08
2022-12-01T00:34:57.968Z,1003.08
2022-12-01T00:35:58.011Z,1003.10
2022-12-01T00:36:57.931Z,1003.10
2022-12-01T00:37:57.923Z,1003.11
2022-12-01T00:38:57.920Z,1003.12
2022-12-01T00:39:57.914Z,1003.12
2022-12-01T00:40:57.900Z,1003.13
2022-12-01T00:41:57.958Z,1003.14
2022-12-01T00:42:57.891Z,1003.15
2022-12-01T00:43:57.902Z,1003.15
2022-12-01T00:44:57.902Z,1003.16
2022-12-01T00:45:57.945Z,1003.16
2022-12-01T00:46:57.872Z,1003.18
2022-12-01T00:47:57.885Z,1003.16
2022-12-01T00:48:57.876Z,1003.16
2022-12-01T00:49:57.876Z,1003.15
2022-12-01T00:50:57.834Z,1003.15
2022-12-01T00:51:57.844Z,1003.15
2022-12-01T00:52:57.843Z,1003.14
2022-12-01T00:53:57.860Z,1003.13
2022-12-01T00:54:57.830Z,1003.13
2022-12-01T00:55:57.802Z,1003.13
2022-12-01T00:56:57.819Z,1003.13
2022-12-01T00:57:57.798Z,1003.12
2022-12-01T00:58:57.807Z,1003.13
2022-12-01T00:59:57.860Z,1003.13
2022-12-01T01:00:57.846Z,1003.13
2022-12-01T01:01:57.856Z,1003.13
2022-12-01T01:02:57.770Z,1003.12
2022-12-01T01:03:57.770Z,1003.12
2022-12-01T01:04:57.750Z,1003.12
2022-12-01T01:05:57.788Z,1003.13
2022-12-01T01:06:57.809Z,1003.13
2022-12-01T01:07:57.812Z,1003.15
2022-12-01T01:08:57.727Z,1003.16
2022-12-01T01:09:57.696Z,1003.17
2022-12-01T01:10:57.705Z,1003.17
2022-12-01T01:11:57.747Z,1003.18
2022-12-01T01:12:57.696Z,1003.18
2022-12-01T01:13:57.677Z,1003.20
2022-12-01T01:14:57.692Z,1003.20
2022-12-01T01:15:57.682Z,1003.21
2022-12-01T01:16:57.764Z,1003.22
2022-12-01T01:17:57.704Z,1003.23
2022-12-01T01:18:57.654Z,1003.23
2022-12-01T01:19:57.640Z,1003.24
2022-12-01T01:20:57.659Z,1003.25
2022-12-01T01:21:57.616Z,1003.26
2022-12-01T01:22:57.616Z,1003.27
2022-12-01T01:23:58.056Z,1003.28
2022-12-01T01:24:57.590Z,1003.29
2022-12-01T01:25:57.586Z,1003.29
2022-12-01T01:26:57.556Z,1003.30
2022-12-01T01:27:57.577Z,1003.31
2022-12-01T01:28:57.606Z,1003.30
2022-12-01T01:29:57.659Z,1003.29
2022-12-01T01:30:57.593Z,1003.30
2022-12-01T01:31:57.548Z,1003.29
2022-12-01T01:32:57.547Z,1003.30
2022-12-01T01:33:57.529Z,1003.30
2022-12-01T01:34:57.529Z,1003.31
2022-12-01T01:35:57.580Z,1003.32
2022-12-01T01:36:57.512Z,1003.33
2022-12-01T01:37:57.508Z,1003.34
2022-12-01T01:38:57.483Z,1003.35
2022-12-01T01:39:57.505Z,1003.36
2022-12-01T01:40:57.498Z,1003.36
2022-12-01T01:41:57.514Z,1003.37
2022-12-01T01:42:57.463Z,1003.36
2022-12-01T01:43:57.489Z,1003.36
2022-12-01T01:44:57.449Z,1003.37
2022-12-01T01:45:57.520Z,1003.38
2022-12-01T01:46:57.460Z,1003.38
2022-12-01T01:47:57.497Z,1003.38
2022-12-01T01:48:57.435Z,1003.38
2022-12-01T01:49:57.428Z,1003.38
2022-12-01T01:50:57.432Z,1003.39
2022-12-01T01:51:57.408Z,1003.40
2022-12-01T01:52:57.434Z,1003.40
2022-12-01T01:53:57.478Z,1003.42
2022-12-01T01:54:57.410Z,1003.41
2022-12-01T01:55:57.411Z,1003.41
2022-12-01T01:56:57.401Z,1003.41
2022-12-01T01:58:18.823Z,1003.41
2022-12-01T01:58:57.372Z,1003.41
2022-12-01T01:59:57.414Z,1003.42
2022-12-01T02:00:57.453Z,1003.42
2022-12-01T02:01:57.349Z,1003.43
2022-12-01T02:02:57.444Z,1003.43
2022-12-01T02:03:57.355Z,1003.45
2022-12-01T02:04:57.348Z,1003.45
2022-12-01T02:06:01.833Z,1003.46
2022-12-01T02:06:58.317Z,1003.47
2022-12-01T02:07:57.372Z,1003.47
2022-12-01T02:08:57.302Z,1003.47
2022-12-01T02:09:57.316Z,1003.46
2022-12-01T02:10:57.307Z,1003.46
2022-12-01T02:11:57.324Z,1003.45
2022-12-01T02:12:57.268Z,1003.43
2022-12-01T02:13:57.277Z,1003.42
2022-12-01T02:14:57.278Z,1003.42
2022-12-01T02:15:57.262Z,1003.41
2022-12-01T02:16:57.315Z,1003.40
2022-12-01T02:17:57.299Z,1003.40
2022-12-01T02:18:57.236Z,1003.39
2022-12-01T02:19:57.208Z,1003.40
2022-12-01T02:20:57.229Z,1003.41
2022-12-01T02:21:57.212Z,1003.41
2022-12-01T02:22:57.194Z,1003.42
2022-12-01T02:23:57.470Z,1003.42
2022-12-01T02:24:57.184Z,1003.42
2022-12-01T02:25:57.167Z,1003.41
2022-12-01T02:26:57.165Z,1003.42
2022-12-01T02:27:57.156Z,1003.42
2022-12-01T02:28:57.186Z,1003.42
2022-12-01T02:29:57.203Z,1003.43
2022-12-01T02:30:57.248Z,1003.42
2022-12-01T02:31:57.133Z,1003.41
2022-12-01T02:32:57.169Z,1003.41
2022-12-01T02:33:57.122Z,1003.40
2022-12-01T02:34:57.103Z,1003.40
2022-12-01T02:35:57.159Z,1003.39
2022-12-01T02:36:57.102Z,1003.38
2022-12-01T02:37:57.102Z,1003.37
2022-12-01T02:38:57.214Z,1003.36
2022-12-01T02:39:57.092Z,1003.35
2022-12-01T02:40:57.100Z,1003.35
2022-12-01T02:41:57.110Z,1003.35
2022-12-01T02:42:57.075Z,1003.35
2022-12-01T02:43:57.055Z,1003.34
2022-12-01T02:44:57.043Z,1003.35
2022-12-01T02:45:57.080Z,1003.37
2022-12-01T02:46:57.054Z,1003.38
2022-12-01T02:47:57.108Z,1003.40
2022-12-01T02:48:57.026Z,1003.42
2022-12-01T02:49:57.020Z,1003.43
2022-12-01T02:50:57.018Z,1003.44
2022-12-01T02:51:57.009Z,1003.44
2022-12-01T02:52:56.983Z,1003.44
2022-12-01T02:53:57.053Z,1003.43
2022-12-01T02:54:56.940Z,1003.43
2022-12-01T02:55:56.977Z,1003.45
2022-12-01T02:56:56.958Z,1003.44
2022-12-01T02:57:56.952Z,1003.44
2022-12-01T02:58:56.948Z,1003.44
2022-12-01T02:59:56.982Z,1003.44
2022-12-01T03:00:56.919Z,1003.44
2022-12-01T03:01:56.911Z,1003.44
2022-12-01T03:02:57.002Z,1003.44
2022-12-01T03:03:56.906Z,1003.44
2022-12-01T03:04:56.909Z,1003.44
2022-12-01T03:05:56.965Z,1003.43
2022-12-01T03:06:56.876Z,1003.42
2022-12-01T03:07:56.898Z,1003.41
2022-12-01T03:08:56.876Z,1003.41
2022-12-01T03:09:56.863Z,1003.39
2022-12-01T03:10:56.854Z,1003.40
2022-12-01T03:11:56.913Z,1003.39
2022-12-01T03:12:56.843Z,1003.38
2022-12-01T03:13:56.824Z,1003.39
2022-12-01T03:14:56.828Z,1003.38
2022-12-01T03:15:56.870Z,1003.38
2022-12-01T03:16:56.824Z,1003.37
2022-12-01T03:17:56.852Z,1003.36
2022-12-01T03:18:56.799Z,1003.36
2022-12-01T03:19:56.797Z,1003.35
2022-12-01T03:20:56.776Z,1003.36
2022-12-01T03:21:56.777Z,1003.36
2022-12-01T03:22:56.796Z,1003.35
2022-12-01T03:23:56.822Z,1003.35
2022-12-01T03:24:56.754Z,1003.35
2022-12-01T03:25:56.775Z,1003.35
2022-12-01T03:26:56.738Z,1003.36
2022-12-01T03:28:20.101Z,1003.36
2022-12-01T03:28:57.910Z,1003.36
2022-12-01T03:29:56.783Z,1003.37
2022-12-01T03:30:56.746Z,1003.39
2022-12-01T03:31:56.721Z,1003.38
2022-12-01T03:32:56.690Z,1003.38
2022-12-01T03:33:56.750Z,1003.38
2022-12-01T03:34:56.739Z,1003.37
2022-12-01T03:35:56.811Z,1003.37
2022-12-01T03:36:56.664Z,1003.37
2022-12-01T03:37:56.787Z,1003.38
2022-12-01T03:38:56.652Z,1003.37
2022-12-01T03:40:00.257Z,1003.39
2022-12-01T03:40:56.687Z,1003.39
2022-12-01T03:41:56.641Z,1003.38
2022-12-01T03:42:56.628Z,1003.39
2022-12-01T03:43:56.647Z,1003.37
2022-12-01T03:44:56.618Z,1003.37
2022-12-01T03:45:56.693Z,1003.35
2022-12-01T03:46:56.673Z,1003.34
2022-12-01T03:47:56.625Z,1003.34
2022-12-01T03:48:56.661Z,1003.35
2022-12-01T03:49:56.599Z,1003.36
2022-12-01T03:50:56.563Z,1003.36
2022-12-01T03:51:56.582Z,1003.37
2022-12-01T03:52:56.609Z,1003.38
2022-12-01T03:53:56.681Z,1003.38
2022-12-01T03:54:56.541Z,1003.38
2022-12-01T03:55:56.547Z,1003.39
2022-12-01T03:56:56.538Z,1003.37
2022-12-01T03:57:56.567Z,1003.37
2022-12-01T03:58:56.564Z,1003.37
2022-12-01T03:59:56.520Z,1003.36
2022-12-01T04:00:56.500Z,1003.35
2022-12-01T04:01:56.553Z,1003.36
2022-12-01T04:02:56.545Z,1003.35
2022-12-01T04:03:56.500Z,1003.35
2022-12-01T04:04:56.511Z,1003.36
2022-12-01T04:05:56.484Z,1003.35
2022-12-01T04:06:56.451Z,1003.35
2022-12-01T04:07:56.527Z,1003.35
2022-12-01T04:08:56.463Z,1003.36
2022-12-01T04:09:56.525Z,1003.35
2022-12-01T04:10:56.507Z,1003.35
2022-12-01T04:11:56.447Z,1003.35
2022-12-01T04:12:56.421Z,1003.35
2022-12-01T04:13:56.430Z,1003.35
2022-12-01T04:14:56.413Z,1003.36
2022-12-01T04:15:56.442Z,1003.35
2022-12-01T04:16:56.428Z,1003.36
2022-12-01T04:17:56.461Z,1003.36
2022-12-01T04:18:56.385Z,1003.37
2022-12-01T04:19:56.361Z,1003.37
2022-12-01T04:20:56.371Z,1003.38
2022-12-01T04:21:56.379Z,1003.39
2022-12-01T04:22:56.422Z,1003.39
2022-12-01T04:23:56.344Z,1003.39
2022-12-01T04:24:56.338Z,1003.39
2022-12-01T04:25:56.333Z,1003.39
2022-12-01T04:26:56.319Z,1003.40
2022-12-01T04:27:56.319Z,1003.41
2022-12-01T04:28:56.348Z,1003.42
2022-12-01T04:29:56.322Z,1003.42
2022-12-01T04:30:56.388Z,1003.42
2022-12-01T04:31:56.278Z,1003.41
2022-12-01T04:32:56.287Z,1003.42
2022-12-01T04:33:56.284Z,1003.43
2022-12-01T04:34:56.379Z,1003.43
2022-12-01T04:35:56.279Z,1003.43
2022-12-01T04:36:56.237Z,1003.43
2022-12-01T04:37:56.252Z,1003.43
2022-12-01T04:38:56.247Z,1003.42
2022-12-01T04:39:56.226Z,1003.41
2022-12-01T04:40:56.262Z,1003.40
2022-12-01T04:41:56.222Z,1003.39
2022-12-01T04:42:56.217Z,1003.38
2022-12-01T04:43:56.201Z,1003.38
2022-12-01T04:44:56.193Z,1003.39
2022-12-01T04:45:56.182Z,1003.39
2022-12-01T04:46:56.279Z,1003.39
2022-12-01T04:47:56.181Z,1003.39
2022-12-01T04:48:56.151Z,1003.39
2022-12-01T04:49:56.183Z,1003.39
2022-12-01T04:50:56.147Z,1003.40
2022-12-01T04:51:56.153Z,1003.40
2022-12-01T04:52:56.193Z,1003.41
2022-12-01T04:53:56.135Z,1003.41
2022-12-01T04:54:56.133Z,1003.42
2022-12-01T04:55:56.122Z,1003.41
2022-12-01T04:56:56.103Z,1003.42
2022-12-01T04:57:56.105Z,1003.42
2022-12-01T04:58:56.165Z,1003.42
2022-12-01T04:59:56.093Z,1003.42
2022-12-01T05:00:56.122Z,1003.44
2022-12-01T05:01:56.149Z,1003.45
2022-12-01T05:02:56.061Z,1003.46
2022-12-01T05:03:56.076Z,1003.47
2022-12-01T05:04:56.105Z,1003.48
2022-12-01T05:05:56.050Z,1003.50
2022-12-01T05:06:56.040Z,1003.50
2022-12-01T05:07:56.078Z,1003.51
2022-12-01T05:08:56.014Z,1003.52
2022-12-01T05:09:56.043Z,1003.53
2022-12-01T05:10:56.050Z,1003.54
2022-12-01T05:11:56.134Z,1003.55
2022-12-01T05:12:56.004Z,1003.56
2022-12-01T05:13:55.970Z,1003.56
2022-12-01T05:14:55.972Z,1003.55
2022-12-01T05:15:56.035Z,1003.56
2022-12-01T05:16:56.019Z,1003.57
2022-12-01T05:17:55.959Z,1003.58
2022-12-01T05:18:55.977Z,1003.57
2022-12-01T05:19:55.947Z,1003.57
2022-12-01T05:20:55.938Z,1003.57
2022-12-01T05:21:55.932Z,1003.56
2022-12-01T05:23:05.319Z,1003.58
2022-12-01T05:23:56.935Z,1003.58
2022-12-01T05:24:55.892Z,1003.59
2022-12-01T05:25:55.904Z,1003.60
2022-12-01T05:26:55.891Z,1003.59
2022-12-01T05:27:55.890Z,1003.60
2022-12-01T05:28:55.916Z,1003.61
2022-12-01T05:29:55.871Z,1003.62
2022-12-01T05:30:55.865Z,1003.62
2022-12-01T05:31:55.905Z,1003.64
2022-12-01T05:32:55.845Z,1003.65
2022-12-01T05:33:55.840Z,1003.66
2022-12-01T05:34:55.924Z,1003.65
2022-12-01T05:35:55.824Z,1003.66
2022-12-01T05:36:55.813Z,1003.66
2022-12-01T05:37:55.831Z,1003.67
2022-12-01T05:38:55.791Z,1003.67
2022-12-01T05:39:55.785Z,1003.66
2022-12-01T05:40:56.058Z,1003.65
2022-12-01T05:41:55.786Z,1003.65
2022-12-01T05:42:55.797Z,1003.65
2022-12-01T05:43:55.785Z,1003.66
2022-12-01T05:44:55.773Z,1003.66
2022-12-01T05:45:55.913Z,1003.66
2022-12-01T05:46:55.809Z,1003.66
2022-12-01T05:47:55.736Z,1003.66
2022-12-01T05:48:55.736Z,1003.67
2022-12-01T05:49:59.531Z,1003.67
2022-12-01T05:50:56.721Z,1003.68
2022-12-01T05:51:55.720Z,1003.67
2022-12-01T05:52:55.743Z,1003.68
2022-12-01T05:53:55.703Z,1003.68
2022-12-01T05:54:55.691Z,1003.67
2022-12-01T05:55:55.653Z,1003.67
2022-12-01T05:56:55.691Z,1003.66
2022-12-01T05:57:55.662Z,1003.67
2022-12-01T05:58:55.711Z,1003.66
2022-12-01T05:59:55.637Z,1003.66
2022-12-01T06:00:55.656Z,1003.66
2022-12-01T06:01:55.678Z,1003.66
2022-12-01T06:02:55.653Z,1003.66
2022-12-01T06:03:55.699Z,1003.67
2022-12-01T06:04:55.663Z,1003.68
2022-12-01T06:05:55.617Z,1003.68
2022-12-01T06:06:55.606Z,1003.69
2022-12-01T06:07:55.640Z,1003.70
2022-12-01T06:08:55.585Z,1003.72
2022-12-01T06:09:55.591Z,1003.72
2022-12-01T06:10:55.642Z,1003.73
2022-12-01T06:11:55.579Z,1003.73
2022-12-01T06:12:55.567Z,1003.73
2022-12-01T06:13:55.578Z,1003.74
2022-12-01T06:14:55.560Z,1003.74
2022-12-01T06:15:55.591Z,1003.75
2022-12-01T06:16:55.616Z,1003.77
2022-12-01T06:17:55.524Z,1003.78
2022-12-01T06:18:55.523Z,1003.77
2022-12-01T06:19:55.512Z,1003.79
2022-12-01T06:20:55.527Z,1003.80
2022-12-01T06:21:55.508Z,1003.81
2022-12-01T06:22:55.563Z,1003.81
2022-12-01T06:23:55.497Z,1003.81
2022-12-01T06:24:55.494Z,1003.81
2022-12-01T06:25:55.471Z,1003.82
2022-12-01T06:26:55.487Z,1003.83
2022-12-01T06:27:55.476Z,1003.83
2022-12-01T06:28:55.519Z,1003.83
2022-12-01T06:29:55.451Z,1003.84
2022-12-01T06:30:59.488Z,1003.85
2022-12-01T06:31:56.492Z,1003.87
2022-12-01T06:32:55.440Z,1003.87
2022-12-01T06:33:55.435Z,1003.87
2022-12-01T06:34:55.457Z,1003.88
2022-12-01T06:35:55.398Z,1003.89
2022-12-01T06:36:55.407Z,1003.90
2022-12-01T06:37:55.398Z,1003.91
2022-12-01T06:38:55.371Z,1003.92
2022-12-01T06:39:55.404Z,1003.94
2022-12-01T06:40:55.502Z,1003.94
2022-12-01T06:41:55.359Z,1003.95
2022-12-01T06:42:55.375Z,1003.96
2022-12-01T06:43:55.347Z,1003.96
2022-12-01T06:44:55.369Z,1003.97
2022-12-01T06:46:01.256Z,1003.99
2022-12-01T06:46:56.374Z,1004.00
2022-12-01T06:47:55.340Z,1004.02
2022-12-01T06:48:55.337Z,1004.04
2022-12-01T06:49:55.310Z,1004.05
2022-12-01T06:50:55.312Z,1004.07
2022-12-01T06:51:55.311Z,1004.08
2022-12-01T06:52:55.349Z,1004.09
2022-12-01T06:53:55.301Z,1004.09
2022-12-01T06:54:55.293Z,1004.11
2022-12-01T06:55:55.274Z,1004.11
2022-12-01T06:56:55.300Z,1004.13
2022-12-01T06:57:55.269Z,1004.13
2022-12-01T06:58:55.335Z,1004.14
2022-12-01T06:59:55.252Z,1004.15
2022-12-01T07:00:55.316Z,1004.16
2022-12-01T07:01:55.279Z,1004.16
2022-12-01T07:02:55.317Z,1004.17
2022-12-01T07:03:55.222Z,1004.17
2022-12-01T07:04:55.278Z,1004.16
2022-12-01T07:05:55.210Z,1004.17
2022-12-01T07:06:55.226Z,1004.16
2022-12-01T07:07:59.532Z,1004.17
2022-12-01T07:08:55.168Z,1004.18
2022-12-01T07:09:55.184Z,1004.19
2022-12-01T07:10:55.208Z,1004.21
2022-12-01T07:11:55.156Z,1004.22
2022-12-01T07:12:55.143Z,1004.24
2022-12-01T07:13:55.152Z,1004.26
2022-12-01T07:14:55.146Z,1004.27
2022-12-01T07:15:55.154Z,1004.27
2022-12-01T07:16:55.292Z,1004.27
2022-12-01T07:17:55.112Z,1004.28
2022-12-01T07:18:55.093Z,1004.28
2022-12-01T07:19:55.112Z,1004.30
2022-12-01T07:20:55.115Z,1004.31
2022-12-01T07:21:55.081Z,1004.32
2022-12-01T07:22:55.134Z,1004.35
2022-12-01T07:23:55.096Z,1004.35
2022-12-01T07:24:55.078Z,1004.36
2022-12-01T07:25:55.074Z,1004.37
2022-12-01T07:26:55.041Z,1004.38
2022-12-01T07:27:55.063Z,1004.40
2022-12-01T07:28:55.089Z,1004.40
2022-12-01T07:29:55.062Z,1004.41
2022-12-01T07:30:55.085Z,1004.42
2022-12-01T07:31:55.023Z,1004.43
2022-12-01T07:32:55.011Z,1004.43
2022-12-01T07:33:55.023Z,1004.44
2022-12-01T07:34:55.055Z,1004.43
2022-12-01T07:35:55.132Z,1004.43
2022-12-01T07:36:54.984Z,1004.41
2022-12-01T07:37:54.952Z,1004.42
2022-12-01T07:38:54.944Z,1004.40
2022-12-01T07:39:54.986Z,1004.40
2022-12-01T07:40:54.981Z,1004.40
2022-12-01T07:41:54.938Z,1004.43
2022-12-01T07:42:54.924Z,1004.45
2022-12-01T07:43:54.926Z,1004.46
2022-12-01T07:44:55.026Z,1004.47
2022-12-01T07:45:54.966Z,1004.46
2022-12-01T07:46:55.344Z,1004.47
2022-12-01T07:47:54.909Z,1004.47
2022-12-01T07:48:54.898Z,1004.47
2022-12-01T07:49:54.875Z,1004.45
2022-12-01T07:50:54.880Z,1004.46
2022-12-01T07:51:54.870Z,1004.46
2022-12-01T07:52:54.908Z,1004.46
2022-12-01T07:53:54.868Z,1004.47
2022-12-01T07:54:54.851Z,1004.48
2022-12-01T07:55:54.861Z,1004.49
2022-12-01T07:56:54.835Z,1004.50
2022-12-01T07:57:54.826Z,1004.50
2022-12-01T07:58:54.905Z,1004.51
2022-12-01T07:59:54.799Z,1004.50
2022-12-01T08:00:54.815Z,1004.50
2022-12-01T08:01:54.811Z,1004.50
2022-12-01T08:02:54.847Z,1004.50
2022-12-01T08:03:54.799Z,1004.51
2022-12-01T08:04:54.841Z,1004.51
2022-12-01T08:05:54.798Z,1004.51
2022-12-01T08:06:54.765Z,1004.53
2022-12-01T08:07:54.825Z,1004.53
2022-12-01T08:08:54.775Z,1004.51
2022-12-01T08:09:54.762Z,1004.52
2022-12-01T08:10:54.813Z,1004.55
2022-12-01T08:11:54.744Z,1004.55
2022-12-01T08:12:54.726Z,1004.57
2022-12-01T08:13:54.701Z,1004.57
2022-12-01T08:14:54.693Z,1004.59
2022-12-01T08:15:54.734Z,1004.59
2022-12-01T08:16:54.770Z,1004.59
2022-12-01T08:17:54.687Z,1004.60
2022-12-01T08:18:54.709Z,1004.60
2022-12-01T08:19:54.673Z,1004.62
2022-12-01T08:20:54.689Z,1004.62
2022-12-01T08:21:54.663Z,1004.63
2022-12-01T08:22:54.677Z,1004.65
2022-12-01T08:23:54.665Z,1004.64
2022-12-01T08:24:54.649Z,1004.65
2022-12-01T08:25:54.638Z,1004.65
2022-12-01T08:26:54.643Z,1004.65
2022-12-01T08:27:54.608Z,1004.65
2022-12-01T08:28:54.634Z,1004.66
2022-12-01T08:29:54.600Z,1004.65
2022-12-01T08:30:54.614Z,1004.66
2022-12-01T08:31:54.592Z,1004.66
2022-12-01T08:32:54.602Z,1004.68
2022-12-01T08:33:54.588Z,1004.66
2022-12-01T08:34:54.625Z,1004.69
2022-12-01T08:35:54.562Z,1004.68
2022-12-01T08:36:54.572Z,1004.69
2022-12-01T08:37:54.561Z,1004.70
2022-12-01T08:38:54.535Z,1004.70
2022-12-01T08:39:54.527Z,1004.71
2022-12-01T08:40:54.579Z,1004.71
2022-12-01T08:41:54.517Z,1004.72
2022-12-01T08:42:54.504Z,1004.72
2022-12-01T08:43:59.055Z,1004.72
2022-12-01T08:44:55.565Z,1004.70
2022-12-01T08:45:54.514Z,1004.71
2022-12-01T08:46:54.596Z,1004.72
2022-12-01T08:47:54.519Z,1004.73
2022-12-01T08:48:54.451Z,1004.74
2022-12-01T08:49:54.449Z,1004.76
2022-12-01T08:50:54.500Z,1004.76
2022-12-01T08:51:54.464Z,1004.78
2022-12-01T08:52:54.641Z,1004.78
2022-12-01T08:53:54.453Z,1004.79
2022-12-01T08:54:54.429Z,1004.80
2022-12-01T08:55:54.449Z,1004.80
2022-12-01T08:56:54.400Z,1004.81
2022-12-01T08:57:54.398Z,1004.81
2022-12-01T08:58:54.443Z,1004.83
2022-12-01T08:59:54.398Z,1004.83
2022-12-01T09:00:54.393Z,1004.83
2022-12-01T09:01:54.456Z,1004.84
2022-12-01T09:02:54.411Z,1004.85
2022-12-01T09:03:54.365Z,1004.86
2022-12-01T09:04:54.438Z,1004.87
2022-12-01T09:05:54.366Z,1004.86
2022-12-01T09:06:54.334Z,1004.87
2022-12-01T09:07:54.381Z,1004.87
2022-12-01T09:08:54.332Z,1004.87
2022-12-01T09:09:54.313Z,1004.87
2022-12-01T09:10:54.364Z,1004.89
2022-12-01T09:11:54.301Z,1004.88
2022-12-01T09:12:54.282Z,1004.89
2022-12-01T09:13:54.798Z,1004.90
2022-12-01T09:14:54.299Z,1004.90
2022-12-01T09:15:54.362Z,1004.92
2022-12-01T09:16:54.310Z,1004.93
2022-12-01T09:17:54.245Z,1004.93
2022-12-01T09:18:54.244Z,1004.94
2022-12-01T09:19:54.239Z,1004.93
2022-12-01T09:20:54.245Z,1004.95
2022-12-01T09:21:54.264Z,1004.97
2022-12-01T09:22:54.252Z,1004.98
2022-12-01T09:23:54.195Z,1005.00
2022-12-01T09:24:54.209Z,1005.00
2022-12-01T09:25:54.543Z,1005.01
2022-12-01T09:26:54.195Z,1005.01
2022-12-01T09:27:54.195Z,1005.02
2022-12-01T09:28:54.265Z,1005.03
2022-12-01T09:29:54.160Z,1005.02
2022-12-01T09:30:54.170Z,1005.03
2022-12-01T09:31:54.223Z,1005.04
2022-12-01T09:32:54.156Z,1005.04
2022-12-01T09:33:54.287Z,1005.01
2022-12-01T09:34:54.215Z,1005.02
2022-12-01T09:35:54.129Z,1005.00
2022-12-01T09:36:54.129Z,1004.98
2022-12-01T09:37:54.119Z,1004.97
2022-12-01T09:38:54.139Z,1004.98
2022-12-01T09:39:54.100Z,1004.97
2022-12-01T09:40:54.145Z,1004.97
2022-12-01T09:41:54.154Z,1004.98
2022-12-01T09:42:54.074Z,1004.97
2022-12-01T09:43:54.085Z,1004.96
2022-12-01T09:44:54.067Z,1004.97
2022-12-01T09:45:54.044Z,1004.95
2022-12-01T09:46:54.187Z,1004.95
2022-12-01T09:47:54.054Z,1004.96
2022-12-01T09:48:54.067Z,1004.95
2022-12-01T09:49:54.048Z,1004.95
2022-12-01T09:50:54.044Z,1004.93
2022-12-01T09:51:54.008Z,1004.91
2022-12-01T09:52:54.087Z,1004.88
2022-12-01T09:53:53.988Z,1004.88
2022-12-01T09:54:53.994Z,1004.88
2022-12-01T09:55:56.677Z,1004.87
2022-12-01T09:56:54.979Z,1004.89
2022-12-01T09:57:54.571Z,1004.89
2022-12-01T09:58:54.306Z,1004.89
2022-12-01T09:59:53.951Z,1004.89
2022-12-01T10:00:54.020Z,1004.89
2022-12-01T10:01:54.096Z,1004.90
2022-12-01T10:02:53.942Z,1004.88
2022-12-01T10:03:53.922Z,1004.87
2022-12-01T10:04:54.024Z,1004.86
2022-12-01T10:06:25.107Z,1004.85
2022-12-01T10:06:54.922Z,1004.85
2022-12-01T10:07:53.944Z,1004.84
2022-12-01T10:08:53.917Z,1004.81
2022-12-01T10:09:53.913Z,1004.81
2022-12-01T10:10:53.938Z,1004.83
2022-12-01T10:11:53.880Z,1004.82
2022-12-01T10:12:53.890Z,1004.81
2022-12-01T10:13:53.873Z,1004.82
2022-12-01T10:14:53.845Z,1004.80
2022-12-01T10:15:53.875Z,1004.79
2022-12-01T10:16:53.923Z,1004.78
2022-12-01T10:17:53.846Z,1004.79
2022-12-01T10:18:53.827Z,1004.77
2022-12-01T10:19:53.820Z,1004.77
2022-12-01T10:20:53.845Z,1004.78
2022-12-01T10:21:53.835Z,1004.78
2022-12-01T10:22:53.865Z,1004.77
2022-12-01T10:23:53.803Z,1004.77
2022-12-01T10:24:53.802Z,1004.76
2022-12-01T10:25:53.805Z,1004.77
2022-12-01T10:26:53.776Z,1004.76
2022-12-01T10:27:53.771Z,1004.76
2022-12-01T10:28:53.838Z,1004.76
2022-12-01T10:29:54.069Z,1004.74
2022-12-01T10:30:53.767Z,1004.74
2022-12-01T10:31:53.859Z,1004.73
2022-12-01T10:32:53.741Z,1004.71
2022-12-01T10:33:53.714Z,1004.72
2022-12-01T10:34:53.796Z,1004.70
2022-12-01T10:35:53.716Z,1004.70
2022-12-01T10:36:53.696Z,1004.69
2022-12-01T10:37:53.740Z,1004.68
2022-12-01T10:38:53.700Z,1004.69
2022-12-01T10:39:53.717Z,1004.68
2022-12-01T10:40:53.737Z,1004.67
2022-12-01T10:41:53.677Z,1004.67
2022-12-01T10:42:53.663Z,1004.67
2022-12-01T10:43:53.672Z,1004.65
2022-12-01T10:44:53.643Z,1004.62
2022-12-01T10:45:53.715Z,1004.61
2022-12-01T10:46:53.703Z,1004.59
2022-12-01T10:47:57.584Z,1004.56
2022-12-01T10:48:54.616Z,1004.54
2022-12-01T10:49:53.714Z,1004.54
2022-12-01T10:50:53.614Z,1004.51
2022-12-01T10:51:53.573Z,1004.50
2022-12-01T10:52:53.652Z,1004.51
2022-12-01T10:53:53.602Z,1004.48
2022-12-01T10:54:53.594Z,1004.47
2022-12-01T10:55:53.558Z,1004.49
2022-12-01T10:56:53.556Z,1004.48
2022-12-01T10:57:53.573Z,1004.49
2022-12-01T10:58:53.624Z,1004.50
2022-12-01T10:59:53.547Z,1004.51
2022-12-01T11:01:01.179Z,1004.50
2022-12-01T11:01:54.692Z,1004.52
2022-12-01T11:02:53.644Z,1004.51
2022-12-01T11:03:53.542Z,1004.50
2022-12-01T11:04:53.942Z,1004.49
2022-12-01T11:05:53.518Z,1004.46
2022-12-01T11:06:53.502Z,1004.44
2022-12-01T11:07:53.605Z,1004.43
2022-12-01T11:08:53.491Z,1004.44
2022-12-01T11:09:53.461Z,1004.44
2022-12-01T11:10:53.525Z,1004.43
2022-12-01T11:11:53.451Z,1004.43
2022-12-01T11:12:53.447Z,1004.43
2022-12-01T11:13:53.454Z,1004.43
2022-12-01T11:14:53.426Z,1004.42
2022-12-01T11:15:53.428Z,1004.41
2022-12-01T11:16:53.537Z,1004.41
2022-12-01T11:17:53.431Z,1004.39
2022-12-01T11:18:53.425Z,1004.39
2022-12-01T11:19:53.592Z,1004.38
2022-12-01T11:20:53.418Z,1004.37
2022-12-01T11:21:53.388Z,1004.38
2022-12-01T11:22:53.429Z,1004.35
2022-12-01T11:23:53.384Z,1004.37
2022-12-01T11:24:53.354Z,1004.32
2022-12-01T11:25:53.356Z,1004.32
2022-12-01T11:26:53.384Z,1004.33
2022-12-01T11:27:53.355Z,1004.33
2022-12-01T11:28:53.371Z,1004.34
2022-12-01T11:29:53.328Z,1004.36
2022-12-01T11:30:56.594Z,1004.36
2022-12-01T11:31:53.384Z,1004.36
2022-12-01T11:32:53.327Z,1004.34
2022-12-01T11:33:53.315Z,1004.37
2022-12-01T11:34:53.357Z,1004.37
2022-12-01T11:35:53.331Z,1004.42
2022-12-01T11:36:53.313Z,1004.36
2022-12-01T11:38:21.139Z,1004.38
2022-12-01T11:38:54.297Z,1004.39
2022-12-01T11:39:53.321Z,1004.41
2022-12-01T11:40:53.305Z,1004.41
2022-12-01T11:41:53.260Z,1004.42
2022-12-01T11:42:53.285Z,1004.41
2022-12-01T11:44:01.220Z,1004.40
2022-12-01T11:44:54.235Z,1004.40
2022-12-01T11:45:53.267Z,1004.37
2022-12-01T11:47:07.828Z,1004.38
2022-12-01T11:47:54.199Z,1004.35
2022-12-01T11:48:53.193Z,1004.33
2022-12-01T11:49:53.354Z,1004.33
2022-12-01T11:50:53.192Z,1004.31
2022-12-01T11:51:53.195Z,1004.32
2022-12-01T11:52:53.245Z,1004.33
2022-12-01T11:53:53.157Z,1004.30
2022-12-01T11:54:53.161Z,1004.31
2022-12-01T11:55:53.153Z,1004.33
2022-12-01T11:57:25.475Z,1004.31
2022-12-01T11:57:54.178Z,1004.32
2022-12-01T11:58:53.227Z,1004.34
2022-12-01T11:59:53.269Z,1004.29
2022-12-01T12:00:53.111Z,1004.32
2022-12-01T12:01:53.199Z,1004.32
2022-12-01T12:02:53.146Z,1004.33
2022-12-01T12:03:53.235Z,1004.34
2022-12-01T12:04:53.105Z,1004.36
2022-12-01T12:05:57.658Z,1004.35